Time;durP1;ratioP1;P1;durP2;ratioP2;P2;SDS_P1;SDS_P2;PMS_P1;PMS_P2;Temp;Humidity;BMP_temperature;BMP_pressure;BME280_temperature;BME280_humidity;BME280_pressure;Samples;Min_cycle;Max_cycle;Signal;HPM_P1;HPM_P2
2021/07/05 00:02:11;;;;;;;0.30;0.30;;;15.50;99.90;;;;;;5032069;28;20476;-73
2021/07/05 00:04:37;;;;;;;0.10;0.10;;;15.50;99.90;;;;;;5032131;28;20036;-73
2021/07/05 00:07:04;;;;;;;0.10;0.10;;;15.40;99.90;;;;;;5030904;28;20032;-73
2021/07/05 00:09:30;;;;;;;0.00;0.00;;;15.40;99.90;;;;;;5030798;28;20021;-73
2021/07/05 00:11:57;;;;;;;0.20;0.20;;;15.50;99.90;;;;;;5031855;28;20033;-73
2021/07/05 00:14:23;;;;;;;0.40;0.40;;;15.60;99.90;;;;;;5032066;28;20053;-73
2021/07/05 00:16:49;;;;;;;0.10;0.10;;;15.70;99.90;;;;;;5031923;28;20049;-72
2021/07/05 00:19:15;;;;;;;0.10;0.10;;;15.60;99.90;;;;;;5031876;28;20025;-73
2021/07/05 00:21:41;;;;;;;0.17;0.17;;;15.50;99.90;;;;;;5030809;28;20040;-73
2021/07/05 00:24:07;;;;;;;0.10;0.10;;;15.50;99.90;;;;;;5030666;28;20029;-73
2021/07/05 00:26:33;;;;;;;0.10;0.10;;;15.60;99.90;;;;;;5032292;28;20454;-73
2021/07/05 00:29:00;;;;;;;0.10;0.10;;;15.50;99.90;;;;;;5031738;28;20041;-73
2021/07/05 00:31:26;;;;;;;0.10;0.10;;;15.50;99.90;;;;;;5030283;28;20409;-73
2021/07/05 00:33:52;;;;;;;0.20;0.20;;;15.40;99.90;;;;;;5031733;28;20022;-72
2021/07/05 00:36:21;;;;;;;0.10;0.10;;;15.30;99.90;;;;;;5030415;28;20048;-73
2021/07/05 00:38:47;;;;;;;0.10;0.10;;;15.40;99.90;;;;;;5015913;28;20448;-72
2021/07/05 00:41:12;;;;;;;0.10;0.10;;;15.30;99.90;;;;;;5036380;28;20488;-73
2021/07/05 00:43:38;;;;;;;0.10;0.10;;;15.30;99.90;;;;;;5034361;28;20029;-73
2021/07/05 00:46:04;;;;;;;0.08;0.08;;;15.40;99.90;;;;;;5034384;28;20025;-73
2021/07/05 00:48:30;;;;;;;0.10;0.10;;;15.40;99.90;;;;;;5034423;28;20108;-73
2021/07/05 00:50:56;;;;;;;0.00;0.00;;;15.40;99.90;;;;;;5035531;28;20113;-73
2021/07/05 00:53:23;;;;;;;0.08;0.08;;;15.30;99.90;;;;;;5035652;28;20029;-73
2021/07/05 00:55:49;;;;;;;0.10;0.10;;;15.30;99.90;;;;;;5034137;28;20397;-73
2021/07/05 00:58:17;;;;;;;0.30;0.30;;;15.40;99.90;;;;;;5035461;28;20021;-73
2021/07/05 01:00:43;;;;;;;0.10;0.10;;;15.40;99.90;;;;;;5034168;28;20034;-73
2021/07/05 01:03:09;;;;;;;0.30;0.30;;;15.30;99.90;;;;;;5035394;28;20042;-72
2021/07/05 01:05:35;;;;;;;0.10;0.10;;;15.10;99.90;;;;;;5035419;28;20105;-72
2021/07/05 01:08:01;;;;;;;0.10;0.10;;;15.10;99.90;;;;;;5034240;28;20101;-73
2021/07/05 01:10:27;;;;;;;0.20;0.20;;;15.10;99.90;;;;;;5035131;28;20022;-73
2021/07/05 01:12:55;;;;;;;0.10;0.10;;;15.00;99.90;;;;;;5033878;28;20120;-73
2021/07/05 01:15:27;;;;;;;0.10;0.10;;;15.10;99.90;;;;;;5017653;28;20021;-73
2021/07/05 01:17:55;;;;;;;1.02;0.55;;;15.10;99.90;;;;;;5035018;28;20388;-73
2021/07/05 01:20:25;;;;;;;0.10;0.10;;;15.10;99.90;;;;;;5017465;28;20389;-73
2021/07/05 01:22:51;;;;;;;0.10;0.10;;;15.10;99.90;;;;;;5035354;28;20056;-73
2021/07/05 01:25:20;;;;;;;0.10;0.10;;;15.10;99.90;;;;;;5033754;28;20443;-73
2021/07/05 01:27:48;;;;;;;0.20;0.20;;;15.10;99.90;;;;;;5034792;28;20025;-73
2021/07/05 01:30:17;;;;;;;0.20;0.20;;;15.10;99.90;;;;;;5034983;28;20071;-73
2021/07/05 01:32:43;;;;;;;0.10;0.10;;;15.20;99.90;;;;;;5033871;28;20106;-73
2021/07/05 01:35:11;;;;;;;0.10;0.10;;;15.20;99.90;;;;;;5033136;28;20027;-73
2021/07/05 01:37:37;;;;;;;0.10;0.10;;;15.10;99.90;;;;;;5033539;28;20022;-73
2021/07/05 01:40:11;;;;;;;0.43;0.20;;;15.10;99.90;;;;;;5033515;28;20076;-73
2021/07/05 01:42:36;;;;;;;0.10;0.10;;;15.10;99.90;;;;;;5034820;28;20097;-73
2021/07/05 01:45:04;;;;;;;0.25;0.25;;;15.00;99.90;;;;;;5034687;28;20022;-72
2021/07/05 01:47:30;;;;;;;0.20;0.20;;;14.90;99.90;;;;;;5033075;28;20068;-73
2021/07/05 01:49:55;;;;;;;5.72;0.45;;;14.70;99.90;;;;;;5034349;28;20516;-73
2021/07/05 01:52:21;;;;;;;0.10;0.10;;;14.70;99.90;;;;;;5034461;28;20030;-73
2021/07/05 01:54:47;;;;;;;0.10;0.10;;;14.60;99.90;;;;;;5016725;28;20071;-73
2021/07/05 01:57:25;;;;;;;0.20;0.20;;;14.60;99.90;;;;;;5034419;28;20367;-73
2021/07/05 01:59:56;;;;;;;0.30;0.30;;;14.60;99.90;;;;;;5034352;28;20033;-72
2021/07/05 02:02:22;;;;;;;0.28;0.25;;;14.60;99.90;;;;;;5016473;28;20588;-73
2021/07/05 02:04:49;;;;;;;0.10;0.10;;;14.40;99.90;;;;;;5033119;28;20059;-72
2021/07/05 02:07:15;;;;;;;0.32;0.32;;;14.40;99.90;;;;;;5034420;28;20049;-72
2021/07/05 02:09:42;;;;;;;0.10;0.10;;;14.40;99.90;;;;;;5032849;28;20119;-72
2021/07/05 02:12:09;;;;;;;0.40;0.40;;;14.40;99.90;;;;;;5034043;28;20449;-73
2021/07/05 02:14:35;;;;;;;0.20;0.20;;;14.40;99.90;;;;;;5032834;28;20096;-72
2021/07/05 02:17:01;;;;;;;0.28;0.20;;;14.40;99.90;;;;;;5032844;28;20433;-72
2021/07/05 02:19:27;;;;;;;0.30;0.30;;;14.30;99.90;;;;;;5032683;28;20026;-73
2021/07/05 02:21:53;;;;;;;0.20;0.20;;;14.30;99.90;;;;;;5033838;28;20388;-73
2021/07/05 02:24:19;;;;;;;0.10;0.10;;;14.30;99.90;;;;;;5034014;28;20033;-72
2021/07/05 02:26:45;;;;;;;0.10;0.10;;;14.30;99.90;;;;;;5033907;28;20485;-72
2021/07/05 02:29:11;;;;;;;0.20;0.20;;;14.30;99.90;;;;;;5016108;28;20121;-72
2021/07/05 02:31:37;;;;;;;0.10;0.10;;;14.30;99.90;;;;;;5015870;28;20397;-72
2021/07/05 02:34:04;;;;;;;0.20;0.20;;;14.30;99.90;;;;;;5032372;28;20021;-73
2021/07/05 02:36:30;;;;;;;0.30;0.30;;;14.30;99.90;;;;;;5015722;28;20422;-72
2021/07/05 02:38:56;;;;;;;0.10;0.10;;;14.30;99.90;;;;;;5033397;28;20104;-72
2021/07/05 02:41:22;;;;;;;0.45;0.45;;;14.40;99.90;;;;;;5015723;28;20067;-73
2021/07/05 02:43:47;;;;;;;0.10;0.10;;;14.30;99.90;;;;;;5033498;28;20049;-72
2021/07/05 02:46:13;;;;;;;0.10;0.10;;;14.30;99.90;;;;;;5032197;28;20087;-72
2021/07/05 02:48:40;;;;;;;0.17;0.17;;;14.30;99.90;;;;;;5033380;28;20500;-72
2021/07/05 02:51:08;;;;;;;0.20;0.20;;;14.30;99.90;;;;;;5033336;28;20548;-72
2021/07/05 02:53:36;;;;;;;0.32;0.32;;;14.30;99.90;;;;;;5032100;28;20025;-73
2021/07/05 02:56:03;;;;;;;0.10;0.10;;;14.30;99.90;;;;;;5031941;28;20029;-73
2021/07/05 02:58:30;;;;;;;0.17;0.17;;;14.30;99.90;;;;;;5031909;28;20152;-73
2021/07/05 03:00:59;;;;;;;0.10;0.10;;;14.40;99.90;;;;;;5032201;28;20036;-73
2021/07/05 03:03:25;;;;;;;0.15;0.15;;;14.40;99.90;;;;;;5033125;28;20474;-73
2021/07/05 03:05:52;;;;;;;0.10;0.10;;;14.70;99.90;;;;;;5031936;28;20022;-73
2021/07/05 03:08:18;;;;;;;0.20;0.20;;;14.60;99.90;;;;;;5031537;28;20029;-73
2021/07/05 03:10:45;;;;;;;0.17;0.17;;;14.70;99.90;;;;;;5032862;28;20033;-73
2021/07/05 03:13:13;;;;;;;0.10;0.10;;;14.60;99.90;;;;;;5032848;28;20021;-73
2021/07/05 03:15:40;;;;;;;0.20;0.20;;;14.70;99.90;;;;;;5032711;28;20021;-73
2021/07/05 03:18:06;;;;;;;0.10;0.10;;;14.80;99.90;;;;;;5014927;28;20037;-73
2021/07/05 03:20:36;;;;;;;0.10;0.10;;;14.80;99.90;;;;;;5032833;28;20048;-72
2021/07/05 03:23:04;;;;;;;0.98;0.30;;;14.80;99.90;;;;;;5031543;28;20485;-73
2021/07/05 03:25:31;;;;;;;0.10;0.10;;;14.70;99.90;;;;;;5032790;28;20030;-73
2021/07/05 03:27:58;;;;;;;0.10;0.10;;;14.60;99.90;;;;;;5031411;28;20387;-73
2021/07/05 03:30:25;;;;;;;0.10;0.10;;;14.60;99.90;;;;;;5032722;28;20481;-73
2021/07/05 03:32:51;;;;;;;0.10;0.10;;;14.70;99.90;;;;;;5032584;28;20025;-73
2021/07/05 03:35:18;;;;;;;0.10;0.10;;;14.70;99.90;;;;;;5032073;28;20104;-73
2021/07/05 03:37:45;;;;;;;0.10;0.10;;;14.70;99.90;;;;;;5032405;28;20025;-73
2021/07/05 03:40:13;;;;;;;0.22;0.22;;;14.60;99.90;;;;;;5032535;28;20385;-73
2021/07/05 03:42:39;;;;;;;0.10;0.10;;;14.50;99.90;;;;;;5031120;28;20022;-73
2021/07/05 03:45:07;;;;;;;0.10;0.10;;;14.50;99.90;;;;;;5032403;28;20104;-73
2021/07/05 03:47:33;;;;;;;0.10;0.10;;;14.60;99.90;;;;;;5030932;28;20034;-73
2021/07/05 03:49:59;;;;;;;0.10;0.10;;;14.60;99.90;;;;;;5032343;28;20014;-73
2021/07/05 03:52:25;;;;;;;0.10;0.10;;;14.60;99.90;;;;;;5032289;28;20033;-73
2021/07/05 03:54:51;;;;;;;0.10;0.10;;;14.70;99.90;;;;;;5031008;28;20155;-72
2021/07/05 03:57:22;;;;;;;0.10;0.10;;;14.60;99.90;;;;;;5030844;28;20028;-72
2021/07/05 03:59:54;;;;;;;0.35;0.35;;;14.60;99.90;;;;;;5031026;28;20021;-73
2021/07/05 04:02:21;;;;;;;0.10;0.10;;;14.60;99.90;;;;;;5030851;28;20025;-73
2021/07/05 04:04:47;;;;;;;0.05;0.05;;;14.70;99.90;;;;;;5030919;28;20124;-73
2021/07/05 04:07:13;;;;;;;0.10;0.10;;;14.70;99.90;;;;;;5032008;28;20048;-73
2021/07/05 04:09:40;;;;;;;0.10;0.10;;;14.70;99.90;;;;;;5031994;28;20377;-73
2021/07/05 04:12:08;;;;;;;0.30;0.30;;;14.70;99.90;;;;;;5030390;28;20389;-72
2021/07/05 04:14:34;;;;;;;0.17;0.17;;;14.70;99.90;;;;;;5032022;28;20025;-73
2021/07/05 04:17:00;;;;;;;0.10;0.10;;;14.60;99.90;;;;;;5031873;28;20433;-73
2021/07/05 04:19:26;;;;;;;0.10;0.10;;;14.60;99.90;;;;;;5031766;28;20104;-73
2021/07/05 04:21:52;;;;;;;0.10;0.10;;;14.60;99.90;;;;;;5030742;28;20025;-73
2021/07/05 04:24:17;;;;;;;0.10;0.10;;;14.70;99.90;;;;;;5030778;28;20497;-73
2021/07/05 04:26:43;;;;;;;0.10;0.10;;;14.80;99.90;;;;;;5032453;28;20109;-73
2021/07/05 04:29:09;;;;;;;0.08;0.08;;;14.90;99.90;;;;;;5031799;28;20030;-73
2021/07/05 04:31:35;;;;;;;3.50;3.25;;;15.00;99.90;;;;;;5030436;28;20100;-73
2021/07/05 04:34:01;;;;;;;0.10;0.10;;;15.00;99.90;;;;;;5031829;28;20417;-73
2021/07/05 04:36:26;;;;;;;0.10;0.10;;;15.10;99.90;;;;;;5030316;28;20021;-73
2021/07/05 04:38:52;;;;;;;0.00;0.00;;;15.10;99.90;;;;;;5030355;28;20018;-73
2021/07/05 04:41:18;;;;;;;1.25;0.77;;;15.00;99.90;;;;;;5031593;28;20041;-73
2021/07/05 04:43:44;;;;;;;0.10;0.10;;;15.00;99.90;;;;;;5030496;28;20030;-73
2021/07/05 04:46:09;;;;;;;0.20;0.20;;;15.20;99.90;;;;;;5031637;28;20524;-73
2021/07/05 04:48:35;;;;;;;0.10;0.10;;;15.30;99.90;;;;;;5031497;28;20370;-73
2021/07/05 04:51:03;;;;;;;0.10;0.10;;;15.50;99.90;;;;;;5030187;28;20021;-73
2021/07/05 04:53:30;;;;;;;0.10;0.10;;;15.50;99.90;;;;;;5031742;28;20032;-73
2021/07/05 04:55:58;;;;;;;0.10;0.10;;;15.40;99.90;;;;;;5030212;28;20104;-73
2021/07/05 04:58:24;;;;;;;1.25;1.17;;;15.50;99.90;;;;;;5031421;28;20336;-73
2021/07/05 05:00:50;;;;;;;0.10;0.10;;;15.50;99.90;;;;;;5031468;28;20034;-73
2021/07/05 05:03:16;;;;;;;0.17;0.17;;;15.50;99.90;;;;;;5030122;28;20493;-73
2021/07/05 05:05:43;;;;;;;0.10;0.10;;;15.60;99.90;;;;;;5031614;28;20026;-73
2021/07/05 05:08:10;;;;;;;0.10;0.10;;;15.70;99.90;;;;;;5031300;28;20021;-73
2021/07/05 05:10:37;;;;;;;0.10;0.10;;;15.80;99.90;;;;;;5029863;28;20397;-73
2021/07/05 05:13:02;;;;;;;0.10;0.10;;;15.80;99.90;;;;;;5031449;28;20053;-73
2021/07/05 05:15:29;;;;;;;0.10;0.10;;;16.10;99.90;;;;;;5030044;28;20101;-73
2021/07/05 05:17:54;;;;;;;0.10;0.10;;;16.20;99.90;;;;;;5031249;28;20032;-73
2021/07/05 05:20:22;;;;;;;0.10;0.10;;;16.30;99.90;;;;;;5029998;28;20416;-73
2021/07/05 05:22:48;;;;;;;0.10;0.10;;;16.50;99.90;;;;;;5031258;28;20121;-73
2021/07/05 05:25:15;;;;;;;0.10;0.10;;;16.30;99.90;;;;;;5032286;28;20068;-73
2021/07/05 05:27:41;;;;;;;0.10;0.10;;;16.30;99.90;;;;;;5033132;28;20029;-73
2021/07/05 05:30:10;;;;;;;0.10;0.10;;;16.40;99.90;;;;;;5033559;28;20028;-73
2021/07/05 05:32:36;;;;;;;0.10;0.10;;;16.40;99.90;;;;;;5032691;28;20056;-73
2021/07/05 05:35:03;;;;;;;0.20;0.20;;;16.50;99.90;;;;;;5034735;28;20049;-73
2021/07/05 05:37:29;;;;;;;0.10;0.10;;;16.60;99.90;;;;;;5034466;28;20017;-73
2021/07/05 05:39:55;;;;;;;0.17;0.17;;;16.60;99.90;;;;;;5015026;28;20499;-72
2021/07/05 05:42:20;;;;;;;0.43;0.38;;;16.60;99.90;;;;;;5034392;28;20029;-73
2021/07/05 05:44:46;;;;;;;0.08;0.08;;;16.50;99.90;;;;;;5033890;28;20029;-72
2021/07/05 05:47:13;;;;;;;0.10;0.10;;;16.70;99.90;;;;;;5031908;28;20465;-73
2021/07/05 05:49:39;;;;;;;0.10;0.10;;;16.80;99.90;;;;;;5032004;28;20021;-73
2021/07/05 05:52:06;;;;;;;0.10;0.10;;;16.90;99.90;;;;;;5032684;28;20033;-73
2021/07/05 05:54:32;;;;;;;0.10;0.10;;;17.00;99.90;;;;;;5016679;28;20017;-73
2021/07/05 05:56:58;;;;;;;0.10;0.10;;;17.20;99.90;;;;;;5016560;28;20040;-72
2021/07/05 05:59:23;;;;;;;0.10;0.10;;;17.30;99.90;;;;;;5034452;28;20025;-73
2021/07/05 06:01:50;;;;;;;0.00;0.00;;;17.30;99.90;;;;;;5015391;28;20104;-72
2021/07/05 06:04:20;;;;;;;0.10;0.10;;;17.40;99.90;;;;;;5031393;28;20033;-73
2021/07/05 06:06:46;;;;;;;1.83;0.40;;;17.60;99.90;;;;;;5016312;28;20030;-73
2021/07/05 06:09:12;;;;;;;0.10;0.10;;;17.60;99.90;;;;;;5034064;28;20031;-73
2021/07/05 06:11:38;;;;;;;0.10;0.10;;;17.50;99.90;;;;;;5032712;28;20034;-72
2021/07/05 06:14:05;;;;;;;0.20;0.20;;;17.50;99.90;;;;;;5032829;28;20026;-72
2021/07/05 06:16:33;;;;;;;0.10;0.10;;;17.60;99.90;;;;;;5032641;28;20048;-73
2021/07/05 06:18:59;;;;;;;0.10;0.10;;;17.70;99.90;;;;;;5033995;28;20025;-73
2021/07/05 06:21:26;;;;;;;0.10;0.10;;;17.90;99.90;;;;;;5033729;28;20025;-73
2021/07/05 06:23:56;;;;;;;0.00;0.00;;;18.10;99.90;;;;;;5033656;28;20401;-72
2021/07/05 06:26:23;;;;;;;0.20;0.20;;;18.30;99.90;;;;;;5032586;28;20060;-72
2021/07/05 06:28:49;;;;;;;0.03;0.03;;;18.30;99.90;;;;;;5032347;28;20034;-73
2021/07/05 06:31:15;;;;;;;0.10;0.10;;;18.30;99.90;;;;;;5033639;28;20496;-72
2021/07/05 06:33:42;;;;;;;0.22;0.22;;;18.50;99.90;;;;;;5033506;28;20021;-72
2021/07/05 06:36:07;;;;;;;0.00;0.00;;;18.50;99.90;;;;;;5032011;28;20048;-73
2021/07/05 06:38:33;;;;;;;0.10;0.10;;;18.80;99.90;;;;;;5033431;28;20050;-73
2021/07/05 06:40:59;;;;;;;0.10;0.10;;;18.90;99.90;;;;;;5032141;28;20029;-73
2021/07/05 06:43:26;;;;;;;0.30;0.30;;;19.00;99.90;;;;;;5031115;28;20412;-72
2021/07/05 06:45:51;;;;;;;0.05;0.05;;;19.00;99.40;;;;;;5029899;28;20493;-73
2021/07/05 06:48:17;;;;;;;2.58;0.40;;;18.90;99.60;;;;;;5032290;28;20025;-73
2021/07/05 06:50:43;;;;;;;0.10;0.10;;;18.80;98.60;;;;;;5030460;28;20057;-73
2021/07/05 06:53:09;;;;;;;0.10;0.10;;;18.80;98.40;;;;;;5032282;28;20030;-73
2021/07/05 06:55:36;;;;;;;0.10;0.10;;;18.80;98.20;;;;;;5013623;28;20127;-72
2021/07/05 06:58:03;;;;;;;0.10;0.10;;;18.90;98.10;;;;;;5027665;28;20362;-73
2021/07/05 07:00:29;;;;;;;0.10;0.10;;;19.20;97.40;;;;;;5030179;28;20018;-73
2021/07/05 07:02:56;;;;;;;0.10;0.10;;;19.40;95.90;;;;;;5030723;28;20096;-72
2021/07/05 07:05:33;;;;;;;0.10;0.10;;;19.40;92.70;;;;;;5029701;28;20018;-73
2021/07/05 07:07:59;;;;;;;0.00;0.00;;;19.40;93.40;;;;;;5013079;28;20136;-73
2021/07/05 07:10:26;;;;;;;0.08;0.08;;;19.50;92.40;;;;;;5030065;28;20017;-73
2021/07/05 07:12:54;;;;;;;0.10;0.10;;;19.80;92.60;;;;;;5031353;28;20144;-73
2021/07/05 07:15:24;;;;;;;1.50;1.45;;;20.00;90.70;;;;;;5030171;28;20088;-73
2021/07/05 07:18:01;;;;;;;0.20;0.20;;;20.30;89.50;;;;;;5029857;28;20386;-73
2021/07/05 07:20:27;;;;;;;0.00;0.00;;;20.40;86.00;;;;;;5029917;28;20108;-73
2021/07/05 07:22:53;;;;;;;0.10;0.10;;;20.60;86.30;;;;;;5030377;28;20109;-73
2021/07/05 07:25:19;;;;;;;0.05;0.05;;;20.80;84.80;;;;;;5013563;28;20021;-73
2021/07/05 07:27:45;;;;;;;0.08;0.08;;;20.70;83.80;;;;;;5029714;28;20033;-72
2021/07/05 07:30:12;;;;;;;0.10;0.10;;;20.90;85.40;;;;;;5029645;28;20101;-72
2021/07/05 07:32:40;;;;;;;0.15;0.10;;;20.90;84.10;;;;;;5027976;28;20079;-73
2021/07/05 07:35:07;;;;;;;0.00;0.00;;;20.80;83.80;;;;;;5030290;28;20029;-74
2021/07/05 07:37:34;;;;;;;0.10;0.10;;;20.60;86.00;;;;;;5030924;28;20124;-73
2021/07/05 07:40:21;;;;;;;0.43;0.43;;;20.60;86.60;;;;;;5031439;28;20623;-72
2021/07/05 07:42:48;;;;;;;0.10;0.10;;;20.50;88.90;;;;;;5029594;28;20021;-73
2021/07/05 07:45:15;;;;;;;0.10;0.10;;;20.50;87.40;;;;;;5031644;28;20538;-73
2021/07/05 07:47:41;;;;;;;0.10;0.10;;;20.70;87.80;;;;;;5028809;28;20426;-73
2021/07/05 07:50:10;;;;;;;0.00;0.00;;;20.90;87.50;;;;;;5030223;28;20037;-73
2021/07/05 07:52:37;;;;;;;0.00;0.00;;;20.80;85.00;;;;;;5030193;28;20556;-73
2021/07/05 07:55:07;;;;;;;0.10;0.10;;;21.10;84.20;;;;;;5013214;28;20052;-73
2021/07/05 07:57:34;;;;;;;0.52;0.25;;;21.30;82.00;;;;;;5029788;28;20072;-73
2021/07/05 08:00:00;;;;;;;4.18;0.57;;;21.40;81.50;;;;;;5030990;28;20025;-73
2021/07/05 08:02:27;;;;;;;0.00;0.00;;;21.50;80.60;;;;;;5030257;28;20456;-73
2021/07/05 08:04:52;;;;;;;0.08;0.08;;;21.50;80.20;;;;;;5030944;28;20044;-73
2021/07/05 08:07:18;;;;;;;0.03;0.03;;;21.80;79.30;;;;;;5030172;28;20401;-73
2021/07/05 08:09:44;;;;;;;0.93;0.47;;;22.10;78.30;;;;;;5029346;28;20030;-73
2021/07/05 08:12:11;;;;;;;0.00;0.00;;;21.80;71.80;;;;;;5027506;28;20650;-73
2021/07/05 08:14:38;;;;;;;0.10;0.10;;;21.70;73.50;;;;;;5025273;28;20021;-73
2021/07/05 08:17:04;;;;;;;0.22;0.15;;;21.80;74.50;;;;;;5028727;28;20129;-73
2021/07/05 08:19:30;;;;;;;0.00;0.00;;;21.90;75.40;;;;;;5029320;28;20052;-73
2021/07/05 08:21:56;;;;;;;0.10;0.10;;;21.80;75.20;;;;;;5028598;28;20033;-73
2021/07/05 08:24:21;;;;;;;0.60;0.20;;;22.00;72.90;;;;;;5029480;28;20030;-73
2021/07/05 08:26:47;;;;;;;0.90;0.50;;;22.30;72.20;;;;;;5028467;28;20022;-73
2021/07/05 08:29:13;;;;;;;0.00;0.00;;;22.60;70.90;;;;;;5027985;28;20025;-73
2021/07/05 08:31:39;;;;;;;0.00;0.00;;;22.60;72.40;;;;;;5010017;28;20107;-73
2021/07/05 08:34:05;;;;;;;0.00;0.00;;;22.60;70.30;;;;;;5029170;28;20068;-73
2021/07/05 08:36:32;;;;;;;0.10;0.10;;;22.90;70.40;;;;;;5028214;28;20060;-73
2021/07/05 08:38:58;;;;;;;0.00;0.00;;;23.30;69.60;;;;;;5029027;28;20037;-74
2021/07/05 08:41:24;;;;;;;0.00;0.00;;;23.30;68.70;;;;;;5028634;28;20034;-73
2021/07/05 08:43:51;;;;;;;0.55;0.40;;;22.90;66.90;;;;;;5012778;28;20036;-73
2021/07/05 08:46:21;;;;;;;0.00;0.00;;;22.70;67.90;;;;;;5028623;28;20559;-73
2021/07/05 08:48:47;;;;;;;0.00;0.00;;;22.70;66.70;;;;;;5028250;28;20029;-73
2021/07/05 08:51:18;;;;;;;0.10;0.10;;;22.70;70.00;;;;;;5030443;28;20038;-73
2021/07/05 08:53:44;;;;;;;0.00;0.00;;;22.90;68.70;;;;;;5029233;28;20018;-73
2021/07/05 08:56:10;;;;;;;0.00;0.00;;;22.90;69.20;;;;;;5029381;28;20029;-73
2021/07/05 08:58:38;;;;;;;0.00;0.00;;;23.00;66.50;;;;;;5029889;28;20049;-73
2021/07/05 09:01:05;;;;;;;0.03;0.03;;;22.90;68.20;;;;;;5034571;28;20388;-73
2021/07/05 09:03:31;;;;;;;0.00;0.00;;;22.90;71.20;;;;;;5033903;28;20277;-73
2021/07/05 09:06:15;;;;;;;0.00;0.00;;;22.90;70.80;;;;;;5033214;28;20079;-73
2021/07/05 09:08:44;;;;;;;0.00;0.00;;;22.60;69.30;;;;;;5033712;28;20025;-73
2021/07/05 09:11:15;;;;;;;0.00;0.00;;;22.60;71.50;;;;;;5032851;28;20034;-73
2021/07/05 09:13:59;;;;;;;0.20;0.20;;;22.70;68.80;;;;;;5032425;28;20022;-73
2021/07/05 09:16:33;;;;;;;0.00;0.00;;;22.60;67.80;;;;;;5034025;28;20496;-73
2021/07/05 09:19:01;;;;;;;0.00;0.00;;;22.50;66.50;;;;;;5033395;28;20079;-73
2021/07/05 09:21:29;;;;;;;0.10;0.10;;;22.90;68.20;;;;;;5034142;28;20485;-73
2021/07/05 09:24:02;;;;;;;0.00;0.00;;;22.90;66.20;;;;;;5033290;28;20033;-73
2021/07/05 09:26:44;;;;;;;0.10;0.10;;;22.70;66.50;;;;;;5032550;28;20037;-73
2021/07/05 09:29:22;;;;;;;0.10;0.10;;;22.70;67.10;;;;;;5033218;28;20519;-73
2021/07/05 09:31:51;;;;;;;0.10;0.10;;;22.90;65.70;;;;;;5033647;28;20485;-73
2021/07/05 09:34:20;;;;;;;0.00;0.00;;;22.90;65.50;;;;;;5033268;28;20036;-73
2021/07/05 09:36:47;;;;;;;0.10;0.10;;;23.10;65.50;;;;;;5032645;28;20090;-73
2021/07/05 09:39:18;;;;;;;0.00;0.00;;;23.30;66.80;;;;;;5032577;28;20029;-73
2021/07/05 09:41:46;;;;;;;0.00;0.00;;;23.30;64.80;;;;;;5033775;28;20025;-72
2021/07/05 09:44:17;;;;;;;0.10;0.10;;;23.30;65.00;;;;;;5015329;28;20045;-73
2021/07/05 09:46:46;;;;;;;0.10;0.10;;;23.30;64.50;;;;;;5053257;22;20048;-74
2021/07/05 09:49:29;;;;;;;0.17;0.17;;;23.30;63.80;;;;;;5052218;28;20029;-74
2021/07/05 09:52:13;;;;;;;0.00;0.00;;;23.10;63.50;;;;;;5053600;28;20100;-74
2021/07/05 09:54:48;;;;;;;0.38;0.10;;;22.90;64.30;;;;;;5052765;28;20036;-74
2021/07/05 09:57:29;;;;;;;0.10;0.10;;;22.80;64.20;;;;;;5041243;28;20025;-73
2021/07/05 09:59:58;;;;;;;0.38;0.35;;;22.60;64.10;;;;;;5050269;28;20075;-74
2021/07/05 10:02:24;;;;;;;0.00;0.00;;;22.90;65.80;;;;;;5053244;28;20388;-74
2021/07/05 10:04:50;;;;;;;0.10;0.10;;;23.10;66.00;;;;;;5044755;28;20025;-74
2021/07/05 10:07:16;;;;;;;0.00;0.00;;;23.40;65.10;;;;;;5052884;28;20465;-74
2021/07/05 10:09:45;;;;;;;0.00;0.00;;;23.60;63.80;;;;;;5052009;28;20025;-74
2021/07/05 10:12:19;;;;;;;0.00;0.00;;;23.90;64.60;;;;;;5038578;28;20480;-74
2021/07/05 10:15:05;;;;;;;0.00;0.00;;;24.20;62.10;;;;;;5052528;28;20025;-74
2021/07/05 10:17:36;;;;;;;0.00;0.00;;;24.20;63.30;;;;;;5036635;28;20127;-75
2021/07/05 10:20:04;;;;;;;;;;;24.10;60.90;;;;;;5052594;28;20102;-74
2021/07/05 10:22:30;;;;;;;0.00;0.00;;;23.90;60.80;;;;;;5052749;28;19904;-74
2021/07/05 10:24:56;;;;;;;0.00;0.00;;;23.80;61.10;;;;;;5040918;28;20036;-74
2021/07/05 10:27:22;;;;;;;0.00;0.00;;;23.70;61.70;;;;;;5052805;28;20037;-74
2021/07/05 10:29:48;;;;;;;0.70;0.45;;;24.10;62.00;;;;;;5039195;28;20033;-74
2021/07/05 10:32:16;;;;;;;0.28;0.10;;;24.40;59.60;;;;;;5052627;28;20033;-74
2021/07/05 10:34:43;;;;;;;0.00;0.00;;;24.40;61.30;;;;;;5046468;28;20042;-75
2021/07/05 10:37:24;;;;;;;0.03;0.03;;;24.60;59.80;;;;;;5042116;28;20492;-74
2021/07/05 10:39:51;;;;;;;0.00;0.00;;;24.50;59.20;;;;;;5043411;28;20544;-74
2021/07/05 10:42:39;;;;;;;0.70;0.13;;;24.30;60.40;;;;;;5027863;28;20492;-74
2021/07/05 10:45:09;;;;;;;0.00;0.00;;;24.60;59.60;;;;;;5051381;28;20388;-74
2021/07/05 10:47:44;;;;;;;0.00;0.00;;;25.10;58.80;;;;;;5028696;28;20059;-74
2021/07/05 10:50:50;;;;;;;0.00;0.00;;;25.20;57.70;;;;;;5047548;28;20025;-74
2021/07/05 10:53:35;;;;;;;0.00;0.00;;;25.10;58.00;;;;;;5037733;28;20033;-74
2021/07/05 10:56:02;;;;;;;0.00;0.00;;;24.80;59.20;;;;;;5035477;28;20104;-74
2021/07/05 10:58:34;;;;;;;0.00;0.00;;;24.80;58.90;;;;;;5052058;28;20047;-74
2021/07/05 11:01:03;;;;;;;0.10;0.10;;;24.70;57.90;;;;;;5044184;28;20563;-74
2021/07/05 11:03:39;;;;;;;0.03;0.03;;;24.60;58.90;;;;;;5051358;28;20029;-72
2021/07/05 11:06:10;;;;;;;0.10;0.10;;;24.20;59.50;;;;;;5052100;28;20515;-72
2021/07/05 11:08:43;;;;;;;0.30;0.30;;;24.10;59.60;;;;;;5051242;28;20017;-72
2021/07/05 11:11:24;;;;;;;0.00;0.00;;;24.00;59.40;;;;;;5051760;28;20025;-72
2021/07/05 11:14:08;;;;;;;;;;;24.10;60.90;;;;;;5051462;28;20025;-72
2021/07/05 11:16:55;;;;;;;0.20;0.20;;;24.20;59.60;;;;;;5040800;28;19954;-72
2021/07/05 11:19:41;;;;;;;5.85;2.13;;;24.30;62.60;;;;;;5037410;28;20025;-73
2021/07/05 11:22:11;;;;;;;0.98;0.30;;;24.70;58.50;;;;;;5040711;28;20068;-74
2021/07/05 11:24:43;;;;;;;0.00;0.00;;;25.00;57.60;;;;;;5051434;28;20059;-74
2021/07/05 11:27:33;;;;;;;1.35;0.28;;;25.50;57.10;;;;;;5043515;28;20020;-77
2021/07/05 11:30:19;;;;;;;0.10;0.10;;;25.80;54.90;;;;;;5051360;28;20026;-77
2021/07/05 11:33:11;;;;;;;0.20;0.20;;;25.90;54.50;;;;;;5052882;28;20447;-78
2021/07/05 11:35:43;;;;;;;0.00;0.00;;;25.70;55.90;;;;;;5018089;28;20033;-75
2021/07/05 11:38:32;;;;;;;0.00;0.00;;;26.20;56.60;;;;;;5022043;28;20071;-75
2021/07/05 11:41:12;;;;;;;0.00;0.00;;;26.60;54.20;;;;;;5050775;28;20024;-75
2021/07/05 11:43:59;;;;;;;0.30;0.05;;;26.80;53.80;;;;;;5044633;28;20029;-75
2021/07/05 11:46:28;;;;;;;0.00;0.00;;;26.40;54.30;;;;;;5039246;28;20025;-75
2021/07/05 11:49:06;;;;;;;0.00;0.00;;;26.10;54.40;;;;;;5042851;28;20126;-75
2021/07/05 11:51:37;;;;;;;0.00;0.00;;;26.10;55.30;;;;;;5050845;28;20025;-75
2021/07/05 11:54:09;;;;;;;0.00;0.00;;;25.90;55.60;;;;;;5051538;28;20365;-75
2021/07/05 11:56:41;;;;;;;0.20;0.20;;;25.90;55.10;;;;;;5042282;28;20506;-75
2021/07/05 11:59:27;;;;;;;0.00;0.00;;;25.80;55.50;;;;;;5051068;28;20094;-75
2021/07/05 12:02:07;;;;;;;0.08;0.08;;;25.60;54.80;;;;;;5050611;28;20102;-75
2021/07/05 12:04:38;;;;;;;0.20;0.10;;;25.30;56.20;;;;;;5038005;28;20373;-75
2021/07/05 12:07:12;;;;;;;0.40;0.40;;;25.20;56.10;;;;;;5040441;28;20025;-74
2021/07/05 12:09:39;;;;;;;0.00;0.00;;;25.00;54.70;;;;;;5042255;28;20082;-75
2021/07/05 12:12:13;;;;;;;0.00;0.00;;;24.80;54.70;;;;;;5051075;28;20025;-76
2021/07/05 12:14:40;;;;;;;0.10;0.10;;;25.00;56.90;;;;;;5051667;28;20017;-77
2021/07/05 12:17:07;;;;;;;0.00;0.00;;;24.90;54.30;;;;;;5021698;28;20017;-77
2021/07/05 12:19:35;;;;;;;0.10;0.10;;;25.10;54.90;;;;;;5047353;28;20407;-78
2021/07/05 12:22:07;;;;;;;0.00;0.00;;;24.90;53.80;;;;;;5041426;28;20032;-78
2021/07/05 12:24:34;;;;;;;0.00;0.00;;;24.90;55.80;;;;;;5049914;28;20365;-78
2021/07/05 12:27:05;;;;;;;0.00;0.00;;;24.90;54.60;;;;;;5051654;28;20043;-78
2021/07/05 12:29:56;;;;;;;0.47;0.20;;;24.70;53.80;;;;;;5051901;28;20086;-78
2021/07/05 12:32:28;;;;;;;0.00;0.00;;;24.70;54.20;;;;;;5039476;28;20036;-78
2021/07/05 12:35:08;;;;;;;0.00;0.00;;;24.80;55.40;;;;;;5050639;28;20476;-78
2021/07/05 12:37:40;;;;;;;1.35;0.63;;;25.00;55.00;;;;;;5049097;28;20013;-78
2021/07/05 12:40:24;;;;;;;0.17;0.17;;;24.50;55.10;;;;;;5054937;28;20112;-78
2021/07/05 12:42:52;;;;;;;0.32;0.32;;;24.40;56.50;;;;;;5025878;28;20025;-79
2021/07/05 12:45:27;;;;;;;0.08;0.08;;;24.00;56.70;;;;;;5056121;28;20470;-79
2021/07/05 12:48:14;;;;;;;0.05;0.05;;;23.70;57.90;;;;;;5049213;28;20037;-74
2021/07/05 12:50:45;;;;;;;0.10;0.10;;;24.00;58.00;;;;;;5056533;28;20056;-75
2021/07/05 12:53:28;;;;;;;0.10;0.10;;;23.60;58.80;;;;;;5050400;28;20021;-75
2021/07/05 12:56:04;;;;;;;0.10;0.10;;;23.80;60.10;;;;;;5056489;28;20024;-75
2021/07/05 12:58:48;;;;;;;0.00;0.00;;;24.10;59.10;;;;;;5027445;28;20028;-74